| weather.gov |
| Winter Havens Gilbert Airport |
| metric |
| D a t e | Time (est) |
Wind (mph) | Vis. (mi.) | Weather | Sky Cond. | Temperature (ºF) | Relative Humidity | Wind Chill (°F) | Heat Index (°F) | Pressure | Precipitation (in.) | ||||||
|---|---|---|---|---|---|---|---|---|---|---|---|---|---|---|---|---|---|
| Air | Dwpt | 6 hour | altimeter (in) | sea level (mb) | 1 hr | 3 hr | 6 hr | ||||||||||
| Max. | Min. | ||||||||||||||||
| 08 | 22:53 | E 6 | 10.00 | Fair | CLR | 65 | 58 | 78% | NA | NA | 30.18 | 1021.9 | |||||
| 08 | 21:53 | E 7 | 10.00 | Fair | CLR | 67 | 59 | 76% | NA | NA | 30.18 | 1021.6 | |||||
| 08 | 20:53 | SE 10 | 10.00 | Fair | CLR | 67 | 59 | 76% | NA | NA | 30.17 | 1021.6 | |||||
| 08 | 19:53 | E 9 | 10.00 | Fair | CLR | 67 | 58 | 73% | NA | NA | 30.18 | 1021.9 | |||||
| 08 | 18:53 | E 6 | 10.00 | A Few Clouds | FEW060 | 68 | 57 | 77 | 68 | 68% | NA | NA | 30.18 | 1021.7 | |||
| 08 | 17:53 | SE 7 | 10.00 | Fair | CLR | 71 | 55 | 57% | NA | NA | 30.17 | 1021.4 | |||||
| 08 | 16:53 | SE 7 | 10.00 | Overcast | OVC070 | 73 | 55 | 53% | NA | NA | 30.17 | 1021.5 | |||||
| 08 | 15:53 | E 8 | 10.00 | Mostly Cloudy | BKN065 | 74 | 56 | 54% | NA | NA | 30.14 | 1020.6 | |||||
| 08 | 14:53 | SE 6 | 10.00 | Mostly Cloudy | FEW048 BKN065 | 75 | 56 | 52% | NA | NA | 30.14 | 1020.5 | |||||
| 08 | 13:53 | S 6 | 10.00 | Fair | CLR | 76 | 55 | 48% | NA | 78 | 30.16 | 1021.1 | |||||
| 08 | 12:53 | SE 9 | 10.00 | A Few Clouds | FEW060 | 76 | 55 | 76 | 54 | 48% | NA | 78 | 30.18 | 1021.6 | |||
| 08 | 11:53 | E 8 | 10.00 | Fair | CLR | 75 | 55 | 50% | NA | NA | 30.21 | 1022.9 | |||||
| 08 | 10:53 | NE 7 | 10.00 | Partly Cloudy | SCT055 | 71 | 57 | 61% | NA | NA | 30.24 | 1023.8 | |||||
| 08 | 09:53 | NE 6 | 10.00 | Mostly Cloudy | BKN055 | 66 | 56 | 70% | NA | NA | 30.25 | 1024.1 | |||||
| 08 | 08:53 | NE 3 | 10.00 | Mostly Cloudy | BKN050 | 63 | 57 | 81% | NA | NA | 30.23 | 1023.7 | |||||
| 08 | 07:53 | Calm | 10.00 | Mostly Cloudy | BKN049 | 59 | 56 | 90% | NA | NA | 30.21 | 1022.9 | |||||
| 08 | 06:53 | Calm | 10.00 | Fair | CLR | 55 | 54 | 57 | 53 | 96% | NA | NA | 30.20 | 1022.5 | |||
| 08 | 05:53 | NE 5 | 10.00 | Fair | CLR | 55 | 53 | 93% | NA | NA | 30.18 | 1021.9 | |||||
| 08 | 04:53 | NE 3 | 10.00 | Fair | CLR | 56 | 53 | 90% | NA | NA | 30.16 | 1021.2 | |||||
| 08 | 03:53 | NE 3 | 10.00 | Fair | CLR | 56 | 54 | 93% | NA | NA | 30.18 | 1021.7 | |||||
| 08 | 02:53 | NE 3 | 10.00 | Fair | CLR | 56 | 53 | 90% | NA | NA | 30.18 | 1021.8 | |||||
| 08 | 01:53 | NE 5 | 10.00 | Fair | CLR | 56 | 54 | 93% | NA | NA | 30.18 | 1022.0 | |||||
| 08 | 00:53 | Calm | 10.00 | Fair | CLR | 57 | 53 | 60 | 55 | 87% | NA | NA | 30.20 | 1022.4 | |||
| 07 | 23:53 | NE 5 | 10.00 | Fair | CLR | 57 | 54 | 90% | NA | NA | 30.19 | 1022.3 | |||||
| 07 | 22:53 | E 3 | 10.00 | Fair | CLR | 57 | 53 | 87% | NA | NA | 30.21 | 1022.8 | |||||
| 07 | 21:53 | E 6 | 10.00 | Fair | CLR | 57 | 52 | 83% | NA | NA | 30.22 | 1023.1 | |||||
| 07 | 20:53 | E 8 | 10.00 | Fair | CLR | 59 | 52 | 78% | NA | NA | 30.22 | 1023.2 | |||||
| 07 | 19:53 | E 6 | 10.00 | Fair | CLR | 59 | 52 | 78% | NA | NA | 30.22 | 1023.1 | |||||
| 07 | 18:53 | NE 5 | 10.00 | Fair | CLR | 59 | 51 | 71 | 59 | 75% | NA | NA | 30.20 | 1022.6 | |||
| 07 | 17:53 | NE 3 | 10.00 | Fair | CLR | 62 | 50 | 65% | NA | NA | 30.20 | 1022.4 | |||||
| 07 | 16:53 | E 6 | 10.00 | Fair | CLR | 66 | 50 | 56% | NA | NA | 30.19 | 1022.1 | |||||
| 07 | 15:53 | E 9 | 10.00 | Fair | CLR | 69 | 49 | 49% | NA | NA | 30.19 | 1022.1 | |||||
| 07 | 14:53 | Vrbl 6 | 10.00 | Fair | CLR | 70 | 49 | 47% | NA | NA | 30.18 | 1021.9 | |||||
| 07 | 13:53 | E 7 | 10.00 | Fair | CLR | 69 | 48 | 47% | NA | NA | 30.19 | 1022.2 | |||||
| 07 | 12:53 | E 7 | 10.00 | Fair | CLR | 67 | 47 | 68 | 46 | 49% | NA | NA | 30.22 | 1023.1 | |||
| 07 | 11:53 | N 8 | 10.00 | Fair | CLR | 65 | 45 | 49% | NA | NA | 30.26 | 1024.4 | |||||
| 07 | 10:53 | NE 7 | 10.00 | Fair | CLR | 63 | 44 | 50% | NA | NA | 30.27 | 1025.0 | |||||
| 07 | 09:53 | N 12 | 10.00 | Fair | CLR | 60 | 43 | 53% | NA | NA | 30.29 | 1025.5 | |||||
| 07 | 08:53 | N 10 | 10.00 | Fair | CLR | 54 | 41 | 62% | NA | NA | 30.27 | 1025.1 | |||||
| 07 | 07:53 | NW 9 | 10.00 | Fair | CLR | 49 | 39 | 69% | 45 | NA | 30.27 | 1024.7 | |||||
| 07 | 06:53 | N 6 | 10.00 | Fair | CLR | 48 | 41 | 49 | 46 | 77% | 45 | NA | 30.26 | 1024.5 | |||
| 07 | 05:53 | NW 8 | 10.00 | Fair | CLR | 47 | 40 | 77% | 43 | NA | 30.24 | 1023.9 | |||||
| 07 | 04:53 | NW 7 | 10.00 | Fair | CLR | 48 | 42 | 80% | 45 | NA | 30.23 | 1023.7 | |||||
| 07 | 03:53 | NW 8 | 10.00 | Fair | CLR | 47 | 42 | 83% | 43 | NA | 30.24 | 1023.7 | |||||
| 07 | 02:53 | NW 8 | 10.00 | A Few Clouds | FEW041 | 48 | 43 | 83% | 44 | NA | 30.23 | 1023.5 | |||||
| 07 | 01:53 | NW 5 | 10.00 | Fair | CLR | 49 | 42 | 77% | 47 | NA | 30.23 | 1023.5 | |||||
| 07 | 00:53 | N 3 | 10.00 | Fair | CLR | 49 | 42 | 53 | 47 | 77% | NA | NA | 30.23 | 1023.6 | |||
| 06 | 23:53 | N 3 | 10.00 | Fair | CLR | 50 | 40 | 68% | NA | NA | 30.23 | 1023.7 | |||||
| 06 | 22:53 | NE 6 | 10.00 | Fair | CLR | 50 | 40 | 68% | 48 | NA | 30.24 | 1023.8 | |||||
| 06 | 21:53 | NE 5 | 10.00 | Fair | CLR | 51 | 39 | 64% | NA | NA | 30.23 | 1023.5 | |||||
| 06 | 20:53 | NE 6 | 10.00 | Fair | CLR | 51 | 39 | 64% | NA | NA | 30.22 | 1023.2 | |||||
| 06 | 19:53 | NE 7 | 10.00 | Fair | CLR | 53 | 39 | 59% | NA | NA | 30.21 | 1022.8 | |||||
| 06 | 18:53 | NE 6 | 10.00 | Fair | CLR | 53 | 39 | 67 | 53 | 59% | NA | NA | 30.19 | 1022.3 | |||
| 06 | 17:53 | N 6 | 10.00 | Fair | CLR | 56 | 38 | 51% | NA | NA | 30.17 | 1021.6 | |||||
| 06 | 16:53 | N 10 | 10.00 | Fair | CLR | 60 | 35 | 39% | NA | NA | 30.15 | 1020.9 | |||||
| 06 | 15:53 | N 14 | 10.00 | Fair | CLR | 63 | 34 | 34% | NA | NA | 30.12 | 1019.9 | |||||
| 06 | 14:53 | N 13 | 10.00 | Fair | CLR | 65 | 32 | 29% | NA | NA | 30.12 | 1019.7 | |||||
| 06 | 13:53 | N 10 | 10.00 | Fair | CLR | 66 | 28 | 24% | NA | NA | 30.12 | 1019.7 | |||||
| 06 | 12:53 | N 16 G 24 | 10.00 | Fair | CLR | 66 | 28 | 67 | 54 | 24% | NA | NA | 30.13 | 1020.2 | |||
| 06 | 11:53 | N 16 G 24 | 10.00 | Fair | CLR | 66 | 33 | 29% | NA | NA | 30.16 | 1021.0 | |||||
| 06 | 10:53 | NW 13 | 10.00 | Fair | CLR | 63 | 35 | 35% | NA | NA | 30.18 | 1021.8 | |||||
| 06 | 09:53 | N 13 G 24 | 10.00 | Fair | CLR | 61 | 38 | 43% | NA | NA | 30.19 | 1022.2 | |||||
| 06 | 08:53 | NW 12 | 10.00 | Fair | CLR | 58 | 42 | 56% | NA | NA | 30.18 | 1021.9 | |||||
| 06 | 07:53 | NW 13 G 21 | 10.00 | Fair | CLR | 55 | 43 | 64% | NA | NA | 30.18 | 1021.7 | |||||
| 06 | 06:53 | NW 8 | 10.00 | Fair | CLR | 55 | 43 | 57 | 55 | 64% | NA | NA | 30.15 | 1021.0 | |||
| 06 | 05:53 | NW 9 | 10.00 | Fair | CLR | 56 | 45 | 67% | NA | NA | 30.13 | 1020.0 | |||||
| 06 | 04:53 | NW 14 | 10.00 | Fair | CLR | 56 | 45 | 67% | NA | NA | 30.11 | 1019.5 | |||||
| 06 | 03:53 | NW 10 | 10.00 | Fair | CLR | 57 | 47 | 69% | NA | NA | 30.10 | 1019.1 | |||||
| 06 | 02:53 | NW 9 | 10.00 | Fair | CLR | 57 | 48 | 72% | NA | NA | 30.09 | 1018.9 | |||||
| 06 | 01:53 | NW 8 | 10.00 | Fair | CLR | 57 | 47 | 69% | NA | NA | 30.10 | 1019.2 | |||||
| 06 | 00:53 | NW 9 | 10.00 | Fair | CLR | 57 | 46 | 61 | 55 | 67% | NA | NA | 30.09 | 1018.8 | |||
| 05 | 23:53 | NW 9 | 10.00 | Fair | CLR | 56 | 45 | 67% | NA | NA | 30.10 | 1019.2 | |||||
| D a t e | Time (est) |
Wind (mph) | Vis. (mi.) | Weather | Sky Cond. | Air | Dwpt | Max. | Min. | Relative Humidity | Wind Chill (°F) | Heat Index (°F) | altimeter (in.) | sea level (mb) |
1 hr | 3 hr | 6 hr |
| 6 hour | |||||||||||||||||
| Temperature (ºF) | Pressure | Precipitation (in.) | |||||||||||||||
| National Weather Service Southern Region Headquarters Fort Worth, Texas Disclaimer |
Last Modified: Febuary, 7 2012 Privacy Policy |
|